• Join FlightAware (Why Join?)
  • Login
  • US Flag 
08:14AM EDT


 

Airport Tracker/Info


-or-


 

Live Flight TrackerFlight Track Log ✈ SKW6330 ✈ 21-Apr-2013 ✈ KLAX - KFAT

Flight Track Log - Related Links

Times and Time Zones

All times are in EDT time to prevent confusion due to time zone crossing. See the SKW6330 flight status page for this flight to view local times or setup timezone preferences in your user account.

Time Position Orientation Groundspeed Altitude Reporting Facility
EDT Latitude Longitude Course Direction KTS MPH feet Rate Location/Type
07:29PM 33.9475 -118.4581 338° Northwest 143 165 1,600  Level Los Angeles Center
07:30PM 33.9581 -118.5233 281° West 196 226 2,600 1,020 Climbing Los Angeles Center
07:31PM 33.9717 -118.5978 282° West 212 244 3,800 1,200 Climbing Los Angeles Center
07:32PM 34.1405 -118.5048 331° Northwest  Level FlightAware Approximate
07:32PM 33.9978 -118.6583 297° West 221 254 5,200  Level Los Angeles Center
07:33PM 34.2116 -118.5475 338° Northwest  Level FlightAware Approximate
07:33PM 34.0631 -118.6703 351° North 221 254 6,500  Level Los Angeles Center
07:34PM 34.2830 -118.5832 338° Northwest  Level FlightAware Approximate
07:34PM 34.1289 -118.6828 351° North 229 264 7,100  Level Los Angeles Center
07:35PM 34.1931 -118.6936 352° North 231 266 8,400 1,200 Climbing Los Angeles Center
07:36PM 34.2536 -118.7061 350° North 223 257 9,700 1,200 Climbing Los Angeles Center
07:37PM 34.3142 -118.7136 354° North 217 250 10,900 1,020 Climbing Los Angeles Center
07:39PM 34.3756 -118.7197 355° North 222 255 11,900 780 Climbing Los Angeles Center
07:40PM 34.4372 -118.7369 347° North 231 266 12,600 720 Climbing Los Angeles Center
07:41PM 34.5108 -118.7647 343° North 232 267 13,500 660 Climbing Los Angeles Center
07:42PM 34.5731 -118.7842 346° North 233 268 14,000 300 Climbing Los Angeles Center
07:43PM 34.6394 -118.8069 344° North 246 283 14,200 480 Climbing Los Angeles Center
07:44PM 34.7047 -118.8300 344° North 246 283 15,000 660 Climbing Los Angeles Center
07:45PM 34.7694 -118.8506 345° North 241 277 15,600 480 Climbing Los Angeles Center
07:46PM 34.8381 -118.8614 353° North 246 283 16,000 660 Climbing Los Angeles Center
07:47PM 34.9142 -118.8714 354° North 243 280 17,000 840 Climbing Los Angeles Center
07:48PM 34.9772 -118.8803 353° North 232 267 17,800 660 Climbing Los Angeles Center
07:49PM 35.0386 -118.8903 352° North 226 260 18,400 540 Climbing Los Angeles Center
07:50PM 35.1019 -118.8989 354° North 227 261 19,000 480 Climbing Los Angeles Center
07:51PM 35.1786 -118.9117 352° North 231 266 19,400 540 Climbing Los Angeles Center
07:52PM 35.2461 -118.9203 354° North 239 275 20,200 720 Climbing Los Angeles Center
07:53PM 35.3106 -118.9300 353° North 238 274 20,900 540 Climbing Los Angeles Center
07:54PM 35.3747 -118.9403 353° North 234 269 21,400 480 Climbing Los Angeles Center
07:55PM 35.4375 -118.9492 353° North 230 265 22,000 240 Climbing Los Angeles Center
07:56PM 35.5153 -118.9619 352° North 233 268 22,000  Level Los Angeles Center
07:57PM 35.5872 -118.9733 353° North 247 284 22,000  Level Los Angeles Center
07:58PM 35.6578 -118.9831 354° North 254 292 22,000  Level Los Angeles Center
07:58PM 35.6672 -118.9847 352° North 248 285 22,000  Level Oakland Center
08:00PM 35.7525 -118.9978 353° North 253 291 22,000  Level Oakland Center
08:01PM 35.8242 -119.0081 353° North 256 295 22,000 -660 Level Oakland Center
08:02PM 35.8967 -119.0194 353° North 258 297 20,700 -1,500 Descending Oakland Center
08:03PM 35.9794 -119.0519 342° North 288 331 19,000 -1,680 Descending Oakland Center
08:04PM 36.0617 -119.0933 338° Northwest 311 358 17,300 -1,800 Descending Oakland Center
08:05PM 36.1431 -119.1314 339° North 315 362 15,400 -1,620 Descending Oakland Center
08:06PM 36.2244 -119.1717 338° Northwest 316 364 14,000 -1,260 Descending Oakland Center
08:07PM 36.3014 -119.2064 340° North 293 337 12,900 -1,500 Descending Oakland Center
08:08PM 36.3778 -119.2419 339° North 294 338 11,000 -1,980 Descending Oakland Center
08:09PM 36.4678 -119.2875 338° Northwest 292 336 8,900 -1,860 Descending Oakland Center
08:10PM 36.5283 -119.3458 322° Northwest 288 331 7,200 -1,620 Descending Oakland Center
08:11PM 36.5786 -119.4183 311° West 280 322 5,700 -1,500 Descending Oakland Center
08:12PM 36.6256 -119.4886 310° West 267 307 4,200 -1,500 Descending Oakland Center